ADDS METAR Data INFO
IDs: Format: Raw Decoded Include TAF

Data at: 2017 UTC 18 Jul 2018

KUOX 181955Z AUTO 00000KT 10SM BKN034 BKN046 OVC120 30/25 A2994 RMK AO2 LTG DSNT SW-NW
KUOX 181935Z AUTO 00000KT 10SM BKN034 BKN041 30/24 A2996 RMK AO2 LTG DSNT SW
KUOX 181915Z AUTO 00000KT 10SM FEW033 SCT110 31/23 A2997 RMK AO2 LTG DSNT SW AND NW
KUOX 181855Z AUTO 10004KT 9SM FEW031 FEW039 SCT110 32/24 A2997 RMK AO2
KUOX 181835Z AUTO VRB03KT 9SM SCT031 SCT039 SCT045 32/23 A2997 RMK AO2
KUOX 181815Z AUTO 10004KT 9SM FEW030 FEW042 SCT048 31/24 A2998 RMK AO2
KUOX 181755Z AUTO 00000KT 10SM FEW029 SCT040 SCT048 31/24 A2998 RMK AO2
KUOX 181735Z AUTO 10004KT 10SM FEW025 FEW050 FEW080 31/24 A2999 RMK AO2
KUOX 181715Z AUTO 00000KT 10SM FEW024 SCT034 BKN080 30/24 A3000 RMK AO2
KUOX 181655Z AUTO 00000KT 10SM FEW022 SCT034 30/23 A3001 RMK AO2
KUOX 181635Z AUTO 11004KT 9SM SCT020 SCT025 30/24 A3001 RMK AO2
KUOX 181615Z AUTO VRB03KT 10SM SCT019 29/24 A3002 RMK AO2
KUOX 181555Z AUTO VRB04KT 10SM FEW017 29/24 A3002 RMK AO2
KUOX 181535Z AUTO VRB04KT 9SM CLR 29/24 A3002 RMK AO2
KUOX 181515Z AUTO 00000KT 10SM CLR 28/23 A3003 RMK AO2
KUOX 181455Z AUTO 00000KT 9SM FEW014 28/23 A3003 RMK AO2
KUOX 181435Z AUTO 00000KT 10SM CLR 27/23 A3002 RMK AO2
KUOX 181415Z AUTO 00000KT 9SM CLR 26/23 A3002 RMK AO2
KUOX 181355Z AUTO 28003KT 10SM CLR 26/23 A3003 RMK AO2
KUOX 181335Z AUTO 00000KT 10SM CLR 25/23 A3003 RMK AO2
KUOX 181315Z AUTO 00000KT 9SM CLR 25/23 A3003 RMK AO2
KUOX 181255Z AUTO 00000KT 9SM CLR 24/23 A3003 RMK AO2
KUOX 181235Z AUTO 00000KT 10SM CLR 23/23 A3004 RMK AO2
KUOX 181215Z AUTO 00000KT 10SM CLR 22/22 A3003 RMK AO2
KUOX 181155Z AUTO 00000KT 9SM CLR 22/22 A3002 RMK AO2
KUOX 181135Z AUTO 00000KT 7SM CLR 22/22 A3002 RMK AO2
KUOX 181115Z AUTO 00000KT 7SM CLR 22/22 A3002 RMK AO2
KUOX 181055Z AUTO 00000KT 9SM FEW030 SCT039 22/22 A3001 RMK AO2
KUOX 181035Z AUTO 00000KT 10SM FEW030 BKN038 BKN044 22/22 A3000 RMK AO2
KUOX 181015Z AUTO 00000KT 8SM SCT037 SCT044 22/22 A3000 RMK AO2
KUOX 180955Z AUTO 00000KT 9SM BKN040 22/22 A3001 RMK AO2
KUOX 180935Z AUTO 00000KT 7SM OVC040 22/22 A3000 RMK AO2
KUOX 180915Z AUTO 00000KT 9SM BKN038 OVC044 22/22 A3000 RMK AO2
KUOX 180855Z AUTO 00000KT 9SM BKN041 22/22 A3001 RMK AO2
KUOX 180835Z AUTO 00000KT 9SM FEW040 22/22 A3000 RMK AO2
KUOX 180815Z AUTO 00000KT 10SM CLR 22/22 A2999 RMK AO2
KUOX 180755Z AUTO 00000KT 10SM CLR 22/21 A2999 RMK AO2
KUOX 180735Z AUTO 00000KT 10SM CLR 22/22 A2998 RMK AO2
KUOX 180715Z AUTO 00000KT 7SM CLR 22/22 A2998 RMK AO2
KUOX 180655Z AUTO 00000KT 10SM CLR 22/21 A2998 RMK AO2
KUOX 180635Z AUTO 30003KT 10SM CLR 22/22 A2999 RMK AO2
KUOX 180615Z AUTO 00000KT 10SM FEW042 22/22 A2999 RMK AO2
KUOX 180555Z AUTO 00000KT 9SM FEW043 22/22 A2999 RMK AO2
KUOX 180535Z AUTO 00000KT 10SM CLR 22/21 A2999 RMK AO2
KUOX 180515Z AUTO 00000KT 10SM FEW070 FEW095 FEW110 22/21 A3000 RMK AO2
KUOX 180455Z AUTO 00000KT 22/22 A3001 RMK AO2
KUOX 180435Z AUTO 10SM FEW003 SCT023 BKN055 22/21 A3002 RMK AO2
KUOX 180415Z AUTO 1 1/2SM -TSRA BKN003 OVC029 22/21 A3004 RMK AO2 LTG DSNT ALQDS
KUOX 180355Z AUTO 2SM VCTS RA BKN003 BKN021 OVC034 22/22 A3007 RMK AO2 LTG DSNT ALQDS
KUOX 180335Z AUTO 08009G15KT 060V120 3/4SM VCTS BR BKN003 BKN016 OVC028 23/22 A3007 RMK AO2 LTG DSNT ALQDS
KUOX 180315Z AUTO 10010G18KT 6SM VCTS HZ SCT019 BKN030 OVC038 24/22 A3007 RMK AO2 LTG DSNT ALQDS
KUOX 180255Z AUTO 10007KT 060V130 10SM TS FEW018 BKN040 OVC085 26/23 A3006 RMK AO2 LTG DSNT N-SE
KUOX 180235Z AUTO 00000KT 10SM BKN041 OVC047 26/23 A3003 RMK AO2 LTG DSNT N-SE
KUOX 180215Z AUTO 00000KT 10SM VCTS BKN043 BKN050 26/23 A3002 RMK AO2 LTG DSNT N-E
KUOX 180155Z AUTO 23003KT 10SM FEW042 26/23 A3000 RMK AO2 LTG DSNT NW-E
KUOX 180135Z AUTO 28005KT 10SM CLR 27/23 A2999 RMK AO2 LTG DSNT ALQDS
KUOX 180115Z AUTO 24006KT 10SM CLR 27/23 A2999 RMK AO2 LTG DSNT NW-E
KUOX 180055Z AUTO 24005KT 10SM CLR 28/24 A3000 RMK AO2 LTG DSNT NE AND NW
KUOX 180035Z AUTO 26005KT 10SM CLR 29/24 A3000 RMK AO2 LTG DSNT NE AND E
KUOX 180015Z AUTO 23004KT 10SM CLR 29/24 A2998 RMK AO2 LTG DSNT NE AND E
KUOX 172355Z AUTO 21005KT 10SM CLR 29/23 A2997 RMK AO2 LTG DSNT E
KUOX 172335Z AUTO 22004KT 10SM CLR 29/22 A2997 RMK AO2 LTG DSNT NE-S
KUOX 172315Z AUTO 00000KT 10SM VCTS CLR 30/21 A2997 RMK AO2 LTG DSNT E AND S AND W
KUOX 172255Z AUTO VRB05KT 9SM CLR 29/24 A2997 RMK AO2
KUOX 172235Z AUTO VRB04KT 10SM CLR 30/24 A2997 RMK AO2 LTG DSNT NE AND E
KUOX 172215Z AUTO VRB05KT 10SM CLR 30/24 A2997 RMK AO2
KUOX 172155Z AUTO VRB06KT 10SM CLR 31/24 A2997 RMK AO2 LTG DSNT NE AND E AND SW
KUOX 172135Z AUTO 18006KT 10SM CLR 32/24 A2996 RMK AO2 LTG DSNT E AND SW
KUOX 172115Z AUTO 00000KT 10SM FEW036 FEW041 FEW070 32/23 A2997 RMK AO2
KUOX 172055Z AUTO 08004KT 9SM VCTS SCT038 BKN065 OVC080 30/23 A2997 RMK AO2 LTG DSNT SE AND SW
KUOX 172035Z AUTO 12008G13KT 080V140 9SM FEW045 BKN060 OVC085 32/23 A2998 RMK AO2
KUOX 172015Z AUTO 19007KT 9SM FEW060 BKN070 BKN085 32/23 A2999 RMK AO2 LTG DSNT SW
KUOX 171955Z AUTO 21007KT 10SM CLR 32/24 A2999 RMK AO2 LTG DSNT NE
KUOX 171935Z AUTO 31006KT 10SM BKN039 BKN046 31/24 A3000 RMK AO2
KUOX 171915Z AUTO 00000KT 10SM BKN038 BKN047 31/23 A3000 RMK AO2
KUOX 171855Z AUTO VRB03KT 10SM BKN037 BKN047 33/23 A3001 RMK AO2
KUOX 171835Z AUTO 24005KT 10SM BKN035 BKN041 BKN047 32/23 A3002 RMK AO2
KUOX 171815Z AUTO 25003KT 10SM BKN034 BKN050 BKN055 31/23 A3003 RMK AO2
KUOX 171755Z AUTO 00000KT 10SM SCT033 BKN042 BKN048 31/23 A3003 RMK AO2
KUOX 171735Z AUTO 00000KT 10SM SCT033 SCT042 31/23 A3003 RMK AO2
KUOX 171715Z AUTO VRB03KT 10SM FEW029 FEW035 SCT041 31/23 A3004 RMK AO2
KUOX 171655Z AUTO 24004KT 10SM SCT028 31/23 A3004 RMK AO2
KUOX 171635Z AUTO 24004KT 10SM SCT026 31/23 A3003 RMK AO2
KUOX 171615Z AUTO 00000KT 10SM CLR 30/23 A3004 RMK AO2
KUOX 171535Z AUTO 24006KT 9SM CLR 30/23 A3004 RMK AO2
KUOX 171515Z AUTO VRB03KT 9SM CLR 29/23 A3004 RMK AO2
KUOX 171455Z AUTO 00000KT 10SM CLR 29/23 A3004 RMK AO2
KUOX 171435Z AUTO 00000KT 10SM CLR 28/23 A3004 RMK AO2
KUOX 171415Z AUTO 00000KT 10SM CLR 27/23 A3005 RMK AO2
KUOX 171355Z AUTO 00000KT 10SM CLR 26/23 A3005 RMK AO2
KUOX 171335Z AUTO 26003KT 10SM CLR 26/23 A3005 RMK AO2
KUOX 171315Z AUTO 30003KT 9SM CLR 25/23 A3005 RMK AO2
KUOX 171255Z AUTO 00000KT 9SM CLR 24/23 A3005 RMK AO2
KUOX 171235Z AUTO 00000KT 9SM CLR 24/23 A3005 RMK AO2
KUOX 171215Z AUTO 00000KT 10SM CLR 23/23 A3005 RMK AO2
KUOX 171155Z AUTO 00000KT 9SM CLR 23/22 A3005 RMK AO2
KUOX 171135Z AUTO 00000KT 6SM BR FEW018 22/22 A3004 RMK AO2
KUOX 171115Z AUTO 00000KT 9SM BKN017 22/22 A3004 RMK AO2
KUOX 171055Z AUTO 00000KT 10SM BKN017 22/22 A3003 RMK AO2
KUOX 171035Z AUTO 00000KT 10SM CLR 22/22 A3003 RMK AO2
KUOX 171015Z AUTO 00000KT 8SM FEW120 22/22 A3002 RMK AO2
KUOX 170955Z AUTO 00000KT 7SM FEW120 22/22 A3001 RMK AO2
KUOX 170935Z AUTO 00000KT 9SM CLR 22/22 A3001 RMK AO2
KUOX 170915Z AUTO 00000KT 8SM CLR 22/22 A3001 RMK AO2
KUOX 170855Z AUTO 00000KT 7SM FEW017 22/22 A3001 RMK AO2
KUOX 170835Z AUTO 00000KT 10SM BKN017 BKN021 22/22 A3001 RMK AO2